Aviation Digital Data Service (ADDS)

Output produced by METARs form (1333 UTC 21 October 2014)
found at http://aviationweather.gov/adds/metars/
 
KGON 211141Z 2112/2212 03005KT P6SM BKN120 
     FM211600 13005KT P6SM SCT040 SCT080 BKN150 
     FM212300 04005KT P6SM FEW030 BKN060 
     FM220700 03010KT P6SM BKN007 
     PROB30 2207/2212 -RA